sensor_id;sensor_type;location;lat;lon;timestamp;P1;durP1;ratioP1;P2;durP2;ratioP2
801;SDS011;383;48.766;9.270;2023-06-22T00:00:45;15.50;;;9.13;;
801;SDS011;383;48.766;9.270;2023-06-22T00:03:12;14.23;;;8.50;;
801;SDS011;383;48.766;9.270;2023-06-22T00:05:39;14.40;;;9.20;;
801;SDS011;383;48.766;9.270;2023-06-22T00:08:05;20.17;;;7.60;;
801;SDS011;383;48.766;9.270;2023-06-22T00:10:32;15.50;;;8.20;;
801;SDS011;383;48.766;9.270;2023-06-22T00:12:59;10.90;;;6.93;;
801;SDS011;383;48.766;9.270;2023-06-22T00:15:27;12.83;;;8.57;;
801;SDS011;383;48.766;9.270;2023-06-22T00:17:54;19.00;;;8.80;;
801;SDS011;383;48.766;9.270;2023-06-22T00:20:22;16.57;;;8.27;;
801;SDS011;383;48.766;9.270;2023-06-22T00:22:52;12.20;;;8.50;;
801;SDS011;383;48.766;9.270;2023-06-22T00:25:19;14.30;;;7.90;;
801;SDS011;383;48.766;9.270;2023-06-22T00:27:46;13.23;;;7.90;;
801;SDS011;383;48.766;9.270;2023-06-22T00:30:13;14.10;;;8.70;;
801;SDS011;383;48.766;9.270;2023-06-22T00:32:41;15.23;;;8.30;;
801;SDS011;383;48.766;9.270;2023-06-22T00:35:08;23.50;;;9.30;;
801;SDS011;383;48.766;9.270;2023-06-22T00:37:35;15.80;;;10.07;;
801;SDS011;383;48.766;9.270;2023-06-22T00:40:02;13.57;;;8.73;;
801;SDS011;383;48.766;9.270;2023-06-22T00:42:28;15.47;;;9.10;;
801;SDS011;383;48.766;9.270;2023-06-22T00:44:55;15.17;;;9.10;;
801;SDS011;383;48.766;9.270;2023-06-22T00:47:22;16.30;;;9.37;;
801;SDS011;383;48.766;9.270;2023-06-22T00:49:50;13.77;;;8.53;;
801;SDS011;383;48.766;9.270;2023-06-22T00:52:17;15.90;;;8.97;;
801;SDS011;383;48.766;9.270;2023-06-22T00:54:46;12.50;;;8.60;;
801;SDS011;383;48.766;9.270;2023-06-22T00:57:14;10.73;;;8.03;;
801;SDS011;383;48.766;9.270;2023-06-22T00:59:41;10.90;;;7.70;;
801;SDS011;383;48.766;9.270;2023-06-22T01:02:09;17.13;;;8.73;;
801;SDS011;383;48.766;9.270;2023-06-22T01:04:36;20.97;;;9.60;;
801;SDS011;383;48.766;9.270;2023-06-22T01:07:08;15.40;;;8.83;;
801;SDS011;383;48.766;9.270;2023-06-22T01:09:44;15.20;;;8.83;;
801;SDS011;383;48.766;9.270;2023-06-22T01:12:18;13.23;;;8.80;;
801;SDS011;383;48.766;9.270;2023-06-22T01:14:47;12.57;;;8.13;;
801;SDS011;383;48.766;9.270;2023-06-22T01:17:20;14.40;;;7.60;;
801;SDS011;383;48.766;9.270;2023-06-22T01:19:48;15.17;;;9.33;;
801;SDS011;383;48.766;9.270;2023-06-22T01:22:23;16.50;;;8.93;;
801;SDS011;383;48.766;9.270;2023-06-22T01:24:55;15.00;;;10.43;;
801;SDS011;383;48.766;9.270;2023-06-22T01:27:32;19.93;;;9.73;;
801;SDS011;383;48.766;9.270;2023-06-22T01:30:14;18.07;;;10.00;;
801;SDS011;383;48.766;9.270;2023-06-22T01:32:43;16.63;;;8.50;;
801;SDS011;383;48.766;9.270;2023-06-22T01:35:10;13.97;;;9.00;;
801;SDS011;383;48.766;9.270;2023-06-22T01:37:38;17.53;;;8.60;;
801;SDS011;383;48.766;9.270;2023-06-22T01:40:05;14.20;;;8.60;;
801;SDS011;383;48.766;9.270;2023-06-22T01:42:34;14.03;;;7.80;;
801;SDS011;383;48.766;9.270;2023-06-22T01:45:02;15.37;;;8.63;;
801;SDS011;383;48.766;9.270;2023-06-22T01:47:32;14.50;;;9.00;;
801;SDS011;383;48.766;9.270;2023-06-22T01:49:59;14.23;;;8.67;;
801;SDS011;383;48.766;9.270;2023-06-22T01:52:26;19.37;;;9.83;;
801;SDS011;383;48.766;9.270;2023-06-22T01:54:53;13.90;;;8.23;;
801;SDS011;383;48.766;9.270;2023-06-22T01:57:20;14.90;;;8.23;;
801;SDS011;383;48.766;9.270;2023-06-22T01:59:48;16.17;;;9.10;;
801;SDS011;383;48.766;9.270;2023-06-22T02:02:24;14.77;;;9.10;;
801;SDS011;383;48.766;9.270;2023-06-22T02:04:56;19.00;;;9.70;;
801;SDS011;383;48.766;9.270;2023-06-22T02:07:26;23.07;;;9.10;;
801;SDS011;383;48.766;9.270;2023-06-22T02:09:58;17.97;;;8.20;;
801;SDS011;383;48.766;9.270;2023-06-22T02:12:26;13.67;;;7.40;;
801;SDS011;383;48.766;9.270;2023-06-22T02:14:54;21.40;;;9.20;;
801;SDS011;383;48.766;9.270;2023-06-22T02:17:21;13.20;;;8.83;;
801;SDS011;383;48.766;9.270;2023-06-22T02:19:49;15.33;;;8.37;;
801;SDS011;383;48.766;9.270;2023-06-22T02:22:17;18.27;;;9.00;;
801;SDS011;383;48.766;9.270;2023-06-22T02:24:44;14.67;;;9.20;;
801;SDS011;383;48.766;9.270;2023-06-22T02:27:10;17.83;;;9.60;;
801;SDS011;383;48.766;9.270;2023-06-22T02:29:37;18.33;;;8.80;;
801;SDS011;383;48.766;9.270;2023-06-22T02:32:04;13.33;;;9.07;;
801;SDS011;383;48.766;9.270;2023-06-22T02:34:31;17.07;;;9.90;;
801;SDS011;383;48.766;9.270;2023-06-22T02:36:58;14.13;;;8.50;;
801;SDS011;383;48.766;9.270;2023-06-22T02:39:27;15.80;;;9.23;;
801;SDS011;383;48.766;9.270;2023-06-22T02:41:54;13.27;;;8.83;;
801;SDS011;383;48.766;9.270;2023-06-22T02:44:21;12.00;;;9.17;;
801;SDS011;383;48.766;9.270;2023-06-22T02:46:48;11.70;;;8.07;;
801;SDS011;383;48.766;9.270;2023-06-22T02:49:15;12.53;;;9.10;;
801;SDS011;383;48.766;9.270;2023-06-22T02:51:44;13.87;;;8.57;;
801;SDS011;383;48.766;9.270;2023-06-22T02:54:12;16.43;;;9.83;;
801;SDS011;383;48.766;9.270;2023-06-22T02:56:40;13.33;;;8.97;;
801;SDS011;383;48.766;9.270;2023-06-22T02:59:08;12.60;;;9.07;;
801;SDS011;383;48.766;9.270;2023-06-22T03:01:36;17.20;;;9.93;;
801;SDS011;383;48.766;9.270;2023-06-22T03:04:05;16.37;;;9.50;;
801;SDS011;383;48.766;9.270;2023-06-22T03:06:32;18.37;;;8.60;;
801;SDS011;383;48.766;9.270;2023-06-22T03:08:59;14.43;;;9.40;;
801;SDS011;383;48.766;9.270;2023-06-22T03:11:28;16.90;;;10.90;;
801;SDS011;383;48.766;9.270;2023-06-22T03:13:57;14.80;;;9.30;;
801;SDS011;383;48.766;9.270;2023-06-22T03:16:23;18.63;;;9.17;;
801;SDS011;383;48.766;9.270;2023-06-22T03:18:50;15.03;;;9.43;;
801;SDS011;383;48.766;9.270;2023-06-22T03:21:18;16.53;;;9.60;;
801;SDS011;383;48.766;9.270;2023-06-22T03:23:45;15.67;;;8.80;;
801;SDS011;383;48.766;9.270;2023-06-22T03:26:11;16.67;;;10.23;;
801;SDS011;383;48.766;9.270;2023-06-22T03:28:38;15.27;;;8.83;;
801;SDS011;383;48.766;9.270;2023-06-22T03:31:06;13.83;;;8.73;;
801;SDS011;383;48.766;9.270;2023-06-22T03:33:33;15.60;;;9.10;;
801;SDS011;383;48.766;9.270;2023-06-22T03:35:59;17.43;;;10.40;;
801;SDS011;383;48.766;9.270;2023-06-22T03:38:26;18.30;;;9.67;;
801;SDS011;383;48.766;9.270;2023-06-22T03:40:53;18.70;;;10.37;;
801;SDS011;383;48.766;9.270;2023-06-22T03:43:19;14.37;;;9.33;;
801;SDS011;383;48.766;9.270;2023-06-22T03:45:46;27.00;;;11.43;;
801;SDS011;383;48.766;9.270;2023-06-22T03:48:14;15.87;;;10.40;;
801;SDS011;383;48.766;9.270;2023-06-22T03:50:41;13.20;;;9.73;;
801;SDS011;383;48.766;9.270;2023-06-22T03:53:09;15.30;;;9.67;;
801;SDS011;383;48.766;9.270;2023-06-22T03:55:35;15.23;;;9.73;;
801;SDS011;383;48.766;9.270;2023-06-22T03:58:02;15.30;;;9.30;;
801;SDS011;383;48.766;9.270;2023-06-22T04:00:30;18.33;;;9.67;;
801;SDS011;383;48.766;9.270;2023-06-22T04:02:57;17.90;;;10.23;;
801;SDS011;383;48.766;9.270;2023-06-22T04:05:25;13.70;;;8.50;;
801;SDS011;383;48.766;9.270;2023-06-22T04:07:52;13.83;;;9.93;;
801;SDS011;383;48.766;9.270;2023-06-22T04:10:18;13.93;;;8.50;;
801;SDS011;383;48.766;9.270;2023-06-22T04:12:45;18.27;;;9.70;;
801;SDS011;383;48.766;9.270;2023-06-22T04:15:12;15.93;;;9.83;;
801;SDS011;383;48.766;9.270;2023-06-22T04:17:39;12.47;;;8.87;;
801;SDS011;383;48.766;9.270;2023-06-22T04:20:06;16.57;;;9.80;;
801;SDS011;383;48.766;9.270;2023-06-22T04:22:35;18.10;;;9.90;;
801;SDS011;383;48.766;9.270;2023-06-22T04:25:02;17.80;;;9.60;;
801;SDS011;383;48.766;9.270;2023-06-22T04:27:29;21.27;;;9.80;;
801;SDS011;383;48.766;9.270;2023-06-22T04:29:55;18.30;;;10.07;;
801;SDS011;383;48.766;9.270;2023-06-22T04:32:25;14.40;;;10.13;;
801;SDS011;383;48.766;9.270;2023-06-22T04:34:52;20.83;;;10.80;;
801;SDS011;383;48.766;9.270;2023-06-22T04:37:18;13.90;;;9.87;;
801;SDS011;383;48.766;9.270;2023-06-22T04:39:49;18.80;;;10.20;;
801;SDS011;383;48.766;9.270;2023-06-22T04:42:16;16.40;;;10.07;;
801;SDS011;383;48.766;9.270;2023-06-22T04:44:43;18.80;;;10.67;;
801;SDS011;383;48.766;9.270;2023-06-22T04:47:09;17.20;;;11.17;;
801;SDS011;383;48.766;9.270;2023-06-22T04:49:36;17.47;;;11.73;;
801;SDS011;383;48.766;9.270;2023-06-22T04:52:05;19.40;;;12.50;;
801;SDS011;383;48.766;9.270;2023-06-22T04:54:33;23.47;;;12.40;;
801;SDS011;383;48.766;9.270;2023-06-22T04:57:03;23.67;;;12.70;;
801;SDS011;383;48.766;9.270;2023-06-22T04:59:35;25.30;;;15.10;;
801;SDS011;383;48.766;9.270;2023-06-22T05:02:04;34.30;;;16.00;;
801;SDS011;383;48.766;9.270;2023-06-22T05:04:31;21.87;;;12.53;;
801;SDS011;383;48.766;9.270;2023-06-22T05:07:00;30.50;;;13.47;;
801;SDS011;383;48.766;9.270;2023-06-22T05:09:28;22.70;;;12.60;;
801;SDS011;383;48.766;9.270;2023-06-22T05:11:55;21.97;;;12.10;;
801;SDS011;383;48.766;9.270;2023-06-22T05:14:23;23.33;;;11.80;;
801;SDS011;383;48.766;9.270;2023-06-22T05:16:50;21.63;;;12.07;;
801;SDS011;383;48.766;9.270;2023-06-22T05:19:17;24.40;;;12.30;;
801;SDS011;383;48.766;9.270;2023-06-22T05:21:44;20.83;;;10.87;;
801;SDS011;383;48.766;9.270;2023-06-22T05:24:11;27.03;;;14.40;;
801;SDS011;383;48.766;9.270;2023-06-22T05:26:38;20.10;;;10.30;;
801;SDS011;383;48.766;9.270;2023-06-22T05:29:04;22.47;;;11.70;;
801;SDS011;383;48.766;9.270;2023-06-22T05:31:33;18.43;;;11.67;;
801;SDS011;383;48.766;9.270;2023-06-22T05:33:59;18.63;;;11.10;;
801;SDS011;383;48.766;9.270;2023-06-22T05:36:27;17.23;;;10.77;;
801;SDS011;383;48.766;9.270;2023-06-22T05:38:55;15.80;;;10.50;;
801;SDS011;383;48.766;9.270;2023-06-22T05:41:23;18.30;;;10.50;;
801;SDS011;383;48.766;9.270;2023-06-22T05:43:49;13.80;;;9.73;;
801;SDS011;383;48.766;9.270;2023-06-22T05:46:16;17.53;;;8.57;;
801;SDS011;383;48.766;9.270;2023-06-22T05:48:45;15.13;;;7.67;;
801;SDS011;383;48.766;9.270;2023-06-22T05:51:11;12.70;;;7.37;;
801;SDS011;383;48.766;9.270;2023-06-22T05:53:38;17.20;;;6.90;;
801;SDS011;383;48.766;9.270;2023-06-22T05:56:05;11.20;;;8.50;;
801;SDS011;383;48.766;9.270;2023-06-22T05:58:31;15.63;;;7.77;;
801;SDS011;383;48.766;9.270;2023-06-22T06:00:58;11.27;;;7.57;;
801;SDS011;383;48.766;9.270;2023-06-22T06:03:25;12.00;;;8.03;;
801;SDS011;383;48.766;9.270;2023-06-22T06:05:55;11.80;;;7.30;;
801;SDS011;383;48.766;9.270;2023-06-22T06:08:22;13.10;;;7.37;;
801;SDS011;383;48.766;9.270;2023-06-22T06:10:48;14.80;;;8.63;;
801;SDS011;383;48.766;9.270;2023-06-22T06:13:17;14.20;;;7.00;;
801;SDS011;383;48.766;9.270;2023-06-22T06:15:44;16.00;;;8.10;;
801;SDS011;383;48.766;9.270;2023-06-22T06:18:11;16.87;;;7.27;;
801;SDS011;383;48.766;9.270;2023-06-22T06:20:38;13.03;;;7.13;;
801;SDS011;383;48.766;9.270;2023-06-22T06:23:06;11.77;;;7.13;;
801;SDS011;383;48.766;9.270;2023-06-22T06:25:32;13.23;;;7.97;;
801;SDS011;383;48.766;9.270;2023-06-22T06:27:59;12.77;;;7.90;;
801;SDS011;383;48.766;9.270;2023-06-22T06:30:26;11.47;;;6.80;;
801;SDS011;383;48.766;9.270;2023-06-22T06:32:53;10.73;;;7.37;;
801;SDS011;383;48.766;9.270;2023-06-22T06:35:19;11.30;;;7.40;;
801;SDS011;383;48.766;9.270;2023-06-22T06:37:47;15.10;;;8.57;;
801;SDS011;383;48.766;9.270;2023-06-22T06:40:17;24.17;;;8.07;;
801;SDS011;383;48.766;9.270;2023-06-22T06:42:44;12.70;;;6.40;;
801;SDS011;383;48.766;9.270;2023-06-22T06:45:15;10.83;;;7.30;;
801;SDS011;383;48.766;9.270;2023-06-22T06:47:43;11.30;;;7.10;;
801;SDS011;383;48.766;9.270;2023-06-22T06:50:10;13.00;;;6.50;;
801;SDS011;383;48.766;9.270;2023-06-22T06:52:37;9.93;;;7.23;;
801;SDS011;383;48.766;9.270;2023-06-22T06:55:04;11.07;;;6.87;;
801;SDS011;383;48.766;9.270;2023-06-22T06:57:35;11.50;;;7.57;;
801;SDS011;383;48.766;9.270;2023-06-22T07:00:02;14.83;;;6.30;;
801;SDS011;383;48.766;9.270;2023-06-22T07:02:34;9.83;;;6.77;;
801;SDS011;383;48.766;9.270;2023-06-22T07:05:01;11.10;;;7.70;;
801;SDS011;383;48.766;9.270;2023-06-22T07:07:29;10.90;;;6.27;;
801;SDS011;383;48.766;9.270;2023-06-22T07:09:56;17.43;;;6.60;;
801;SDS011;383;48.766;9.270;2023-06-22T07:12:22;11.73;;;6.97;;
801;SDS011;383;48.766;9.270;2023-06-22T07:14:51;9.87;;;6.17;;
801;SDS011;383;48.766;9.270;2023-06-22T07:17:18;13.30;;;6.77;;
801;SDS011;383;48.766;9.270;2023-06-22T07:19:45;14.27;;;7.00;;
801;SDS011;383;48.766;9.270;2023-06-22T07:22:11;10.67;;;6.80;;
801;SDS011;383;48.766;9.270;2023-06-22T07:24:38;14.60;;;6.30;;
801;SDS011;383;48.766;9.270;2023-06-22T07:27:05;10.30;;;6.97;;
801;SDS011;383;48.766;9.270;2023-06-22T07:29:32;12.43;;;6.40;;
801;SDS011;383;48.766;9.270;2023-06-22T07:32:00;10.33;;;6.43;;
801;SDS011;383;48.766;9.270;2023-06-22T07:34:29;12.30;;;6.90;;
801;SDS011;383;48.766;9.270;2023-06-22T07:36:56;11.80;;;6.70;;
801;SDS011;383;48.766;9.270;2023-06-22T07:39:23;13.23;;;7.13;;
801;SDS011;383;48.766;9.270;2023-06-22T07:41:51;24.30;;;8.30;;
801;SDS011;383;48.766;9.270;2023-06-22T07:44:18;19.73;;;7.20;;
801;SDS011;383;48.766;9.270;2023-06-22T07:46:45;19.37;;;7.40;;
801;SDS011;383;48.766;9.270;2023-06-22T07:49:13;17.23;;;6.90;;
801;SDS011;383;48.766;9.270;2023-06-22T07:51:40;15.87;;;7.13;;
801;SDS011;383;48.766;9.270;2023-06-22T07:54:06;11.90;;;6.80;;
801;SDS011;383;48.766;9.270;2023-06-22T07:56:33;16.70;;;6.50;;
801;SDS011;383;48.766;9.270;2023-06-22T07:59:00;12.07;;;5.63;;
801;SDS011;383;48.766;9.270;2023-06-22T08:01:28;10.97;;;6.83;;
801;SDS011;383;48.766;9.270;2023-06-22T08:03:55;12.27;;;6.10;;
801;SDS011;383;48.766;9.270;2023-06-22T08:06:23;8.47;;;5.97;;
801;SDS011;383;48.766;9.270;2023-06-22T08:08:50;11.60;;;6.27;;
801;SDS011;383;48.766;9.270;2023-06-22T08:11:19;15.33;;;6.77;;
801;SDS011;383;48.766;9.270;2023-06-22T08:13:47;14.33;;;5.80;;
801;SDS011;383;48.766;9.270;2023-06-22T08:16:14;16.20;;;5.90;;
801;SDS011;383;48.766;9.270;2023-06-22T08:18:40;13.20;;;6.30;;
801;SDS011;383;48.766;9.270;2023-06-22T08:21:07;12.70;;;5.90;;
801;SDS011;383;48.766;9.270;2023-06-22T08:23:35;9.10;;;6.40;;
801;SDS011;383;48.766;9.270;2023-06-22T08:26:02;11.00;;;5.43;;
801;SDS011;383;48.766;9.270;2023-06-22T08:28:29;8.77;;;5.17;;
801;SDS011;383;48.766;9.270;2023-06-22T08:30:55;13.30;;;6.00;;
801;SDS011;383;48.766;9.270;2023-06-22T08:33:22;19.73;;;6.50;;
801;SDS011;383;48.766;9.270;2023-06-22T08:35:53;9.03;;;5.87;;
801;SDS011;383;48.766;9.270;2023-06-22T08:38:20;13.27;;;6.10;;
801;SDS011;383;48.766;9.270;2023-06-22T08:40:48;12.37;;;5.73;;
801;SDS011;383;48.766;9.270;2023-06-22T08:43:14;11.73;;;6.13;;
801;SDS011;383;48.766;9.270;2023-06-22T08:45:41;17.17;;;6.30;;
801;SDS011;383;48.766;9.270;2023-06-22T08:48:08;12.57;;;5.97;;
801;SDS011;383;48.766;9.270;2023-06-22T08:50:34;10.83;;;6.00;;
801;SDS011;383;48.766;9.270;2023-06-22T08:53:01;14.93;;;6.23;;
801;SDS011;383;48.766;9.270;2023-06-22T08:55:28;15.27;;;6.53;;
801;SDS011;383;48.766;9.270;2023-06-22T08:57:56;9.37;;;6.33;;
801;SDS011;383;48.766;9.270;2023-06-22T09:00:22;15.03;;;6.03;;
801;SDS011;383;48.766;9.270;2023-06-22T09:02:49;12.50;;;5.47;;
801;SDS011;383;48.766;9.270;2023-06-22T09:05:16;13.73;;;6.67;;
801;SDS011;383;48.766;9.270;2023-06-22T09:07:43;15.60;;;6.50;;
801;SDS011;383;48.766;9.270;2023-06-22T09:10:10;13.10;;;7.50;;
801;SDS011;383;48.766;9.270;2023-06-22T09:12:36;12.70;;;6.00;;
801;SDS011;383;48.766;9.270;2023-06-22T09:15:05;17.03;;;6.33;;
801;SDS011;383;48.766;9.270;2023-06-22T09:17:33;11.53;;;5.90;;
801;SDS011;383;48.766;9.270;2023-06-22T09:20:00;12.57;;;7.03;;
801;SDS011;383;48.766;9.270;2023-06-22T09:22:30;10.90;;;5.60;;
801;SDS011;383;48.766;9.270;2023-06-22T09:24:57;16.97;;;7.57;;
801;SDS011;383;48.766;9.270;2023-06-22T09:27:24;14.20;;;6.63;;
801;SDS011;383;48.766;9.270;2023-06-22T09:29:51;16.30;;;7.20;;
801;SDS011;383;48.766;9.270;2023-06-22T09:32:19;13.53;;;6.73;;
801;SDS011;383;48.766;9.270;2023-06-22T09:34:46;13.73;;;6.20;;
801;SDS011;383;48.766;9.270;2023-06-22T09:37:12;17.80;;;7.07;;
801;SDS011;383;48.766;9.270;2023-06-22T09:39:39;15.87;;;7.27;;
801;SDS011;383;48.766;9.270;2023-06-22T09:42:06;14.40;;;6.60;;
801;SDS011;383;48.766;9.270;2023-06-22T09:44:33;14.20;;;7.27;;
801;SDS011;383;48.766;9.270;2023-06-22T09:46:59;13.67;;;6.53;;
801;SDS011;383;48.766;9.270;2023-06-22T09:49:28;11.70;;;7.03;;
801;SDS011;383;48.766;9.270;2023-06-22T09:51:54;19.43;;;6.57;;
801;SDS011;383;48.766;9.270;2023-06-22T09:54:21;12.10;;;6.77;;
801;SDS011;383;48.766;9.270;2023-06-22T09:56:49;22.13;;;7.10;;
801;SDS011;383;48.766;9.270;2023-06-22T09:59:15;16.33;;;7.40;;
801;SDS011;383;48.766;9.270;2023-06-22T10:01:42;15.73;;;7.10;;
801;SDS011;383;48.766;9.270;2023-06-22T10:04:09;10.30;;;6.83;;
801;SDS011;383;48.766;9.270;2023-06-22T10:06:37;14.47;;;7.17;;
801;SDS011;383;48.766;9.270;2023-06-22T10:09:05;20.27;;;6.50;;
801;SDS011;383;48.766;9.270;2023-06-22T10:11:32;14.73;;;6.40;;
801;SDS011;383;48.766;9.270;2023-06-22T10:14:00;15.20;;;7.47;;
801;SDS011;383;48.766;9.270;2023-06-22T10:16:30;17.40;;;7.77;;
801;SDS011;383;48.766;9.270;2023-06-22T10:18:57;18.03;;;7.30;;
801;SDS011;383;48.766;9.270;2023-06-22T10:21:24;19.40;;;8.07;;
801;SDS011;383;48.766;9.270;2023-06-22T10:23:53;18.67;;;7.53;;
801;SDS011;383;48.766;9.270;2023-06-22T10:26:20;14.70;;;6.53;;
801;SDS011;383;48.766;9.270;2023-06-22T10:28:47;15.77;;;7.00;;
801;SDS011;383;48.766;9.270;2023-06-22T10:31:13;16.77;;;7.90;;
801;SDS011;383;48.766;9.270;2023-06-22T10:33:41;16.10;;;7.20;;
801;SDS011;383;48.766;9.270;2023-06-22T10:36:09;12.87;;;7.37;;
801;SDS011;383;48.766;9.270;2023-06-22T10:38:36;12.30;;;6.23;;
801;SDS011;383;48.766;9.270;2023-06-22T10:41:04;12.37;;;6.40;;
801;SDS011;383;48.766;9.270;2023-06-22T10:43:30;14.10;;;7.40;;
801;SDS011;383;48.766;9.270;2023-06-22T10:45:57;15.70;;;7.10;;
801;SDS011;383;48.766;9.270;2023-06-22T10:48:24;17.77;;;7.40;;
801;SDS011;383;48.766;9.270;2023-06-22T10:50:50;13.63;;;6.90;;
801;SDS011;383;48.766;9.270;2023-06-22T10:53:18;14.80;;;6.87;;
801;SDS011;383;48.766;9.270;2023-06-22T10:55:44;15.13;;;6.90;;
801;SDS011;383;48.766;9.270;2023-06-22T10:58:12;18.40;;;7.47;;
801;SDS011;383;48.766;9.270;2023-06-22T11:00:39;13.60;;;7.47;;
801;SDS011;383;48.766;9.270;2023-06-22T11:03:06;11.87;;;6.67;;
801;SDS011;383;48.766;9.270;2023-06-22T11:05:32;15.57;;;7.73;;
801;SDS011;383;48.766;9.270;2023-06-22T11:07:59;13.90;;;7.03;;
801;SDS011;383;48.766;9.270;2023-06-22T11:10:26;16.30;;;7.57;;
801;SDS011;383;48.766;9.270;2023-06-22T11:12:53;15.60;;;7.70;;
801;SDS011;383;48.766;9.270;2023-06-22T11:15:21;17.40;;;7.43;;
801;SDS011;383;48.766;9.270;2023-06-22T11:17:48;12.87;;;6.43;;
801;SDS011;383;48.766;9.270;2023-06-22T11:20:15;15.80;;;6.93;;
801;SDS011;383;48.766;9.270;2023-06-22T11:22:42;11.60;;;7.27;;
801;SDS011;383;48.766;9.270;2023-06-22T11:25:08;17.73;;;7.33;;
801;SDS011;383;48.766;9.270;2023-06-22T11:27:37;15.23;;;7.30;;
801;SDS011;383;48.766;9.270;2023-06-22T11:30:04;12.30;;;7.87;;
801;SDS011;383;48.766;9.270;2023-06-22T11:32:33;21.23;;;8.30;;
801;SDS011;383;48.766;9.270;2023-06-22T11:35:00;12.70;;;7.13;;
801;SDS011;383;48.766;9.270;2023-06-22T11:37:27;13.50;;;6.50;;
801;SDS011;383;48.766;9.270;2023-06-22T11:39:56;14.03;;;6.80;;
801;SDS011;383;48.766;9.270;2023-06-22T11:42:23;12.67;;;7.60;;
801;SDS011;383;48.766;9.270;2023-06-22T11:44:50;20.33;;;6.70;;
801;SDS011;383;48.766;9.270;2023-06-22T11:47:17;19.90;;;7.30;;
801;SDS011;383;48.766;9.270;2023-06-22T11:49:45;12.10;;;7.90;;
801;SDS011;383;48.766;9.270;2023-06-22T11:52:11;19.83;;;8.90;;
801;SDS011;383;48.766;9.270;2023-06-22T11:54:38;16.53;;;7.80;;
801;SDS011;383;48.766;9.270;2023-06-22T11:57:05;22.97;;;8.33;;
801;SDS011;383;48.766;9.270;2023-06-22T11:59:32;22.47;;;8.33;;
801;SDS011;383;48.766;9.270;2023-06-22T12:01:59;21.97;;;7.33;;
801;SDS011;383;48.766;9.270;2023-06-22T12:04:25;13.83;;;7.43;;
801;SDS011;383;48.766;9.270;2023-06-22T12:06:53;14.60;;;6.50;;
801;SDS011;383;48.766;9.270;2023-06-22T12:09:20;22.83;;;7.33;;
801;SDS011;383;48.766;9.270;2023-06-22T12:11:47;19.57;;;7.60;;
801;SDS011;383;48.766;9.270;2023-06-22T12:14:14;15.53;;;7.37;;
801;SDS011;383;48.766;9.270;2023-06-22T12:16:40;15.10;;;7.73;;
801;SDS011;383;48.766;9.270;2023-06-22T12:19:08;16.60;;;7.60;;
801;SDS011;383;48.766;9.270;2023-06-22T12:21:36;18.60;;;7.53;;
801;SDS011;383;48.766;9.270;2023-06-22T12:24:05;15.60;;;7.80;;
801;SDS011;383;48.766;9.270;2023-06-22T12:26:32;13.77;;;6.90;;
801;SDS011;383;48.766;9.270;2023-06-22T12:28:59;18.00;;;7.03;;
801;SDS011;383;48.766;9.270;2023-06-22T12:31:26;13.90;;;7.70;;
801;SDS011;383;48.766;9.270;2023-06-22T12:33:53;17.30;;;7.10;;
801;SDS011;383;48.766;9.270;2023-06-22T12:36:19;15.53;;;7.60;;
801;SDS011;383;48.766;9.270;2023-06-22T12:38:46;20.30;;;8.00;;
801;SDS011;383;48.766;9.270;2023-06-22T12:41:14;22.00;;;7.90;;
801;SDS011;383;48.766;9.270;2023-06-22T12:43:40;18.77;;;7.77;;
801;SDS011;383;48.766;9.270;2023-06-22T12:46:07;20.40;;;8.83;;
801;SDS011;383;48.766;9.270;2023-06-22T12:48:34;18.33;;;7.60;;
801;SDS011;383;48.766;9.270;2023-06-22T12:51:06;18.30;;;7.93;;
801;SDS011;383;48.766;9.270;2023-06-22T12:53:33;15.80;;;8.57;;
801;SDS011;383;48.766;9.270;2023-06-22T12:56:00;19.27;;;7.63;;
801;SDS011;383;48.766;9.270;2023-06-22T12:58:28;19.90;;;6.70;;
801;SDS011;383;48.766;9.270;2023-06-22T13:00:54;27.43;;;7.40;;
801;SDS011;383;48.766;9.270;2023-06-22T13:03:21;18.30;;;8.40;;
801;SDS011;383;48.766;9.270;2023-06-22T13:05:50;20.33;;;7.60;;
801;SDS011;383;48.766;9.270;2023-06-22T13:08:16;16.93;;;7.60;;
801;SDS011;383;48.766;9.270;2023-06-22T13:10:43;15.53;;;8.30;;
801;SDS011;383;48.766;9.270;2023-06-22T13:13:10;17.50;;;8.10;;
801;SDS011;383;48.766;9.270;2023-06-22T13:15:38;16.40;;;8.47;;
801;SDS011;383;48.766;9.270;2023-06-22T13:18:05;18.20;;;8.27;;
801;SDS011;383;48.766;9.270;2023-06-22T13:20:31;19.93;;;8.57;;
801;SDS011;383;48.766;9.270;2023-06-22T13:22:58;13.53;;;6.47;;
801;SDS011;383;48.766;9.270;2023-06-22T13:25:25;30.23;;;8.20;;
801;SDS011;383;48.766;9.270;2023-06-22T13:27:52;17.10;;;7.40;;
801;SDS011;383;48.766;9.270;2023-06-22T13:30:18;17.00;;;7.77;;
801;SDS011;383;48.766;9.270;2023-06-22T13:32:46;15.60;;;7.80;;
801;SDS011;383;48.766;9.270;2023-06-22T13:35:13;27.40;;;8.00;;
801;SDS011;383;48.766;9.270;2023-06-22T13:37:40;16.23;;;7.37;;
801;SDS011;383;48.766;9.270;2023-06-22T13:40:07;21.23;;;7.70;;
801;SDS011;383;48.766;9.270;2023-06-22T13:42:34;18.67;;;8.17;;
801;SDS011;383;48.766;9.270;2023-06-22T13:45:01;20.07;;;9.50;;
801;SDS011;383;48.766;9.270;2023-06-22T13:47:28;19.13;;;9.30;;
801;SDS011;383;48.766;9.270;2023-06-22T13:49:57;14.60;;;8.00;;
801;SDS011;383;48.766;9.270;2023-06-22T13:52:24;18.20;;;7.57;;
801;SDS011;383;48.766;9.270;2023-06-22T13:54:51;13.97;;;8.20;;
801;SDS011;383;48.766;9.270;2023-06-22T13:57:17;16.47;;;8.00;;
801;SDS011;383;48.766;9.270;2023-06-22T13:59:44;15.67;;;6.30;;
801;SDS011;383;48.766;9.270;2023-06-22T14:02:11;18.60;;;7.13;;
801;SDS011;383;48.766;9.270;2023-06-22T14:04:38;15.83;;;6.83;;
801;SDS011;383;48.766;9.270;2023-06-22T14:07:06;12.53;;;6.17;;
801;SDS011;383;48.766;9.270;2023-06-22T14:09:32;15.23;;;6.37;;
801;SDS011;383;48.766;9.270;2023-06-22T14:12:02;14.53;;;6.20;;
801;SDS011;383;48.766;9.270;2023-06-22T14:14:29;11.93;;;5.73;;
801;SDS011;383;48.766;9.270;2023-06-22T14:16:56;18.00;;;8.07;;
801;SDS011;383;48.766;9.270;2023-06-22T14:19:23;12.10;;;7.20;;
801;SDS011;383;48.766;9.270;2023-06-22T14:21:49;22.23;;;7.10;;
801;SDS011;383;48.766;9.270;2023-06-22T14:24:17;17.23;;;7.97;;
801;SDS011;383;48.766;9.270;2023-06-22T14:26:44;24.60;;;7.33;;
801;SDS011;383;48.766;9.270;2023-06-22T14:29:11;19.27;;;6.20;;
801;SDS011;383;48.766;9.270;2023-06-22T14:31:37;20.63;;;6.70;;
801;SDS011;383;48.766;9.270;2023-06-22T14:34:04;13.70;;;6.30;;
801;SDS011;383;48.766;9.270;2023-06-22T14:36:31;18.57;;;6.60;;
801;SDS011;383;48.766;9.270;2023-06-22T14:38:58;22.10;;;6.73;;
801;SDS011;383;48.766;9.270;2023-06-22T14:41:26;15.47;;;6.70;;
801;SDS011;383;48.766;9.270;2023-06-22T14:43:52;15.00;;;6.63;;
801;SDS011;383;48.766;9.270;2023-06-22T14:46:19;20.30;;;7.10;;
801;SDS011;383;48.766;9.270;2023-06-22T14:48:46;14.97;;;5.90;;
801;SDS011;383;48.766;9.270;2023-06-22T14:51:12;15.93;;;6.73;;
801;SDS011;383;48.766;9.270;2023-06-22T14:53:39;18.37;;;6.57;;
801;SDS011;383;48.766;9.270;2023-06-22T14:56:06;26.50;;;5.10;;
801;SDS011;383;48.766;9.270;2023-06-22T14:58:34;15.23;;;5.80;;
801;SDS011;383;48.766;9.270;2023-06-22T15:01:01;20.13;;;5.37;;
801;SDS011;383;48.766;9.270;2023-06-22T15:03:29;21.90;;;5.27;;
801;SDS011;383;48.766;9.270;2023-06-22T15:05:57;18.80;;;5.50;;
801;SDS011;383;48.766;9.270;2023-06-22T15:08:24;19.07;;;4.40;;
801;SDS011;383;48.766;9.270;2023-06-22T15:10:51;10.50;;;4.93;;
801;SDS011;383;48.766;9.270;2023-06-22T15:13:18;17.30;;;4.60;;
801;SDS011;383;48.766;9.270;2023-06-22T15:15:47;19.23;;;5.10;;
801;SDS011;383;48.766;9.270;2023-06-22T15:18:14;11.30;;;4.63;;
801;SDS011;383;48.766;9.270;2023-06-22T15:20:41;14.93;;;5.13;;
801;SDS011;383;48.766;9.270;2023-06-22T15:23:09;15.20;;;4.70;;
801;SDS011;383;48.766;9.270;2023-06-22T15:25:36;14.93;;;5.50;;
801;SDS011;383;48.766;9.270;2023-06-22T15:28:03;13.43;;;5.40;;
801;SDS011;383;48.766;9.270;2023-06-22T15:30:30;14.33;;;4.90;;